createdAt,value
2022-11-05T00:02:32.956Z,6.80
2022-11-05T00:06:45.629Z,6.70
2022-11-05T00:10:48.343Z,6.60
2022-11-05T00:15:00.974Z,6.50
2022-11-05T00:19:10.218Z,6.40
2022-11-05T00:23:22.989Z,6.30
2022-11-05T00:27:26.656Z,6.20
2022-11-05T00:31:27.726Z,6.20
2022-11-05T00:35:27.775Z,6.10
2022-11-05T00:39:27.883Z,6.10
2022-11-05T00:43:43.309Z,6.10
2022-11-05T00:47:57.058Z,6.00
2022-11-05T00:52:18.731Z,6.00
2022-11-05T00:56:18.834Z,6.10
2022-11-05T01:00:21.950Z,6.10
2022-11-05T01:04:22.126Z,6.10
2022-11-05T01:08:25.865Z,6.20
2022-11-05T01:12:26.116Z,6.20
2022-11-05T01:16:28.883Z,6.20
2022-11-05T01:20:30.217Z,6.20
2022-11-05T01:24:30.514Z,6.20
2022-11-05T01:28:30.775Z,6.10
2022-11-05T01:32:33.531Z,6.10
2022-11-05T01:36:33.734Z,6.00
2022-11-05T01:40:34.001Z,6.00
2022-11-05T01:45:01.029Z,5.90
2022-11-05T01:49:14.921Z,5.80
2022-11-05T01:53:29.737Z,5.80
2022-11-05T01:57:32.011Z,5.70
2022-11-05T02:01:32.584Z,5.60
2022-11-05T02:05:37.448Z,5.60
2022-11-05T02:09:46.673Z,5.50
2022-11-05T02:13:47.227Z,5.50
2022-11-05T02:18:02.297Z,5.50
2022-11-05T02:22:53.935Z,5.50
2022-11-05T02:27:49.317Z,5.50
2022-11-05T02:32:02.396Z,5.40
2022-11-05T02:36:46.547Z,5.40
2022-11-05T02:41:05.125Z,5.50
2022-11-05T02:45:15.866Z,5.50
2022-11-05T02:49:36.178Z,5.50
2022-11-05T02:53:48.314Z,5.50
2022-11-05T02:57:50.991Z,5.50
2022-11-05T03:01:53.334Z,5.50
2022-11-05T03:06:22.623Z,5.40
2022-11-05T03:10:48.668Z,5.40
2022-11-05T03:15:00.553Z,5.40
2022-11-05T03:19:11.688Z,5.40
2022-11-05T03:23:25.573Z,5.40
2022-11-05T03:27:34.652Z,5.40
2022-11-05T03:31:38.159Z,5.40
2022-11-05T03:35:44.372Z,5.40
2022-11-05T03:39:51.853Z,5.20
2022-11-05T03:43:57.197Z,5.10
2022-11-05T03:48:02.770Z,4.90
2022-11-05T03:52:08.997Z,4.90
2022-11-05T03:56:22.713Z,4.90
2022-11-05T04:00:25.627Z,4.90
2022-11-05T04:04:25.766Z,5.00
2022-11-05T04:08:38.417Z,5.00
2022-11-05T04:12:53.710Z,5.00
2022-11-05T04:17:09.696Z,4.90
2022-11-05T04:21:24.281Z,4.80
2022-11-05T04:25:25.607Z,4.60
2022-11-05T04:29:40.729Z,4.50
2022-11-05T04:33:41.059Z,4.50
2022-11-05T04:37:41.147Z,4.60
2022-11-05T04:41:41.230Z,4.80
2022-11-05T04:45:44.384Z,4.80
2022-11-05T04:49:44.446Z,4.90
2022-11-05T04:53:44.520Z,5.00
2022-11-05T04:57:44.721Z,5.00
2022-11-05T05:01:47.409Z,5.10
2022-11-05T05:05:47.552Z,5.10
2022-11-05T05:09:47.659Z,5.20
2022-11-05T05:13:48.503Z,5.30
2022-11-05T05:17:54.086Z,5.40
2022-11-05T05:21:54.393Z,5.50
2022-11-05T05:25:54.437Z,5.70
2022-11-05T05:29:54.492Z,5.90
2022-11-05T05:33:59.146Z,6.00
2022-11-05T05:37:59.711Z,6.10
2022-11-05T05:41:59.787Z,6.20
2022-11-05T05:46:00.169Z,6.10
2022-11-05T05:50:03.163Z,6.10
2022-11-05T05:54:03.222Z,6.10
2022-11-05T05:58:03.254Z,6.10
2022-11-05T06:02:03.919Z,6.10
2022-11-05T06:06:10.257Z,6.20
2022-11-05T06:10:11.756Z,6.20
2022-11-05T06:14:14.031Z,6.20
2022-11-05T06:18:14.337Z,6.30
2022-11-05T06:22:17.223Z,6.30
2022-11-05T06:26:20.422Z,6.40
2022-11-05T06:30:21.846Z,6.40
2022-11-05T06:34:21.951Z,6.60
2022-11-05T06:38:24.615Z,6.80
2022-11-05T06:42:25.110Z,6.80
2022-11-05T06:46:25.374Z,6.90
2022-11-05T06:50:25.846Z,7.00
2022-11-05T06:54:28.448Z,7.10
2022-11-05T06:58:30.944Z,7.20
2022-11-05T07:02:30.997Z,7.30
2022-11-05T07:06:36.705Z,7.30
2022-11-05T07:10:39.761Z,7.40
2022-11-05T07:14:39.885Z,7.60
2022-11-05T07:18:40.082Z,7.60
2022-11-05T07:22:40.907Z,7.80
2022-11-05T07:26:44.708Z,7.90
2022-11-05T07:30:45.541Z,8.20
2022-11-05T07:34:45.895Z,8.60
2022-11-05T07:38:46.199Z,9.00
2022-11-05T07:42:51.418Z,9.50
2022-11-05T07:46:51.494Z,9.90
2022-11-05T07:50:55.858Z,10.00
2022-11-05T07:54:56.041Z,10.40
2022-11-05T07:58:58.664Z,10.80
2022-11-05T08:03:08.659Z,10.90
2022-11-05T08:07:09.445Z,10.80
2022-11-05T08:11:11.945Z,10.60
2022-11-05T08:15:15.141Z,10.40
2022-11-05T08:19:15.238Z,10.00
2022-11-05T08:23:15.578Z,9.90
2022-11-05T08:27:15.916Z,9.80
2022-11-05T08:31:19.207Z,9.80
2022-11-05T08:35:20.364Z,9.80
2022-11-05T08:39:20.669Z,9.80
2022-11-05T08:43:20.683Z,9.50
2022-11-05T08:47:24.163Z,9.50
2022-11-05T08:51:24.484Z,9.40
2022-11-05T08:55:24.782Z,9.60
2022-11-05T08:59:29.884Z,10.00
2022-11-05T09:03:32.535Z,10.90
2022-11-05T09:07:32.584Z,11.80
2022-11-05T09:11:49.912Z,12.30
2022-11-05T09:15:53.983Z,12.60
2022-11-05T09:19:56.671Z,12.90
2022-11-05T09:23:56.707Z,12.80
2022-11-05T09:27:56.803Z,12.80
2022-11-05T09:31:56.859Z,12.60
2022-11-05T09:36:03.235Z,12.20
2022-11-05T09:40:03.373Z,12.00
2022-11-05T09:44:13.149Z,11.70
2022-11-05T09:48:20.477Z,11.40
2022-11-05T09:52:26.669Z,11.80
2022-11-05T09:56:32.229Z,12.70
2022-11-05T10:00:34.550Z,13.00
2022-11-05T10:04:37.095Z,13.20
2022-11-05T10:08:46.969Z,12.80
2022-11-05T10:12:55.467Z,12.20
2022-11-05T10:17:03.725Z,11.80
2022-11-05T10:21:04.638Z,12.50
2022-11-05T10:25:21.568Z,13.60
2022-11-05T10:29:29.914Z,14.80
2022-11-05T10:33:38.770Z,15.00
2022-11-05T10:37:41.370Z,15.00
2022-11-05T10:42:05.064Z,14.70
2022-11-05T10:46:22.851Z,13.90
2022-11-05T10:50:27.192Z,13.20
2022-11-05T10:54:37.693Z,12.60
2022-11-05T10:58:42.714Z,12.50
2022-11-05T11:02:43.031Z,12.40
2022-11-05T11:06:52.400Z,12.10
2022-11-05T11:10:56.055Z,12.40
2022-11-05T11:15:16.798Z,13.70
2022-11-05T11:19:32.362Z,14.90
2022-11-05T11:23:40.797Z,14.60
2022-11-05T11:27:41.291Z,13.70
2022-11-05T11:31:45.098Z,13.10
2022-11-05T11:35:49.503Z,12.80
2022-11-05T11:39:55.588Z,12.80
2022-11-05T11:44:02.648Z,12.80
2022-11-05T11:48:09.937Z,12.90
2022-11-05T11:52:18.700Z,13.10
2022-11-05T11:56:22.548Z,13.40
2022-11-05T12:00:27.006Z,13.20
2022-11-05T12:05:13.879Z,13.10
2022-11-05T12:09:24.171Z,14.20
2022-11-05T12:14:12.589Z,15.60
2022-11-05T12:18:26.069Z,16.80
2022-11-05T12:22:40.878Z,17.30
2022-11-05T12:26:58.203Z,16.60
2022-11-05T12:31:11.979Z,16.70
2022-11-05T12:35:33.167Z,17.50
2022-11-05T12:39:51.253Z,17.40
2022-11-05T12:44:17.048Z,17.30
2022-11-05T12:48:59.230Z,17.40
2022-11-05T12:53:38.552Z,18.60
2022-11-05T12:57:45.859Z,18.50
2022-11-05T13:01:52.891Z,18.60
2022-11-05T13:06:05.469Z,19.60
2022-11-05T13:10:31.759Z,19.70
2022-11-05T13:14:41.889Z,18.90
2022-11-05T13:18:48.634Z,18.50
2022-11-05T13:22:53.626Z,19.70
2022-11-05T13:27:01.112Z,20.40
2022-11-05T13:31:08.406Z,20.30
2022-11-05T13:35:18.670Z,20.60
2022-11-05T13:39:28.501Z,20.90
2022-11-05T13:44:14.173Z,21.00
2022-11-05T13:48:47.215Z,20.90
2022-11-05T13:53:17.746Z,20.60
2022-11-05T13:57:43.873Z,20.20
2022-11-05T14:01:53.541Z,20.30
2022-11-05T14:06:05.193Z,20.00
2022-11-05T14:10:20.591Z,18.10
2022-11-05T14:14:25.595Z,16.20
2022-11-05T14:18:45.103Z,15.00
2022-11-05T14:22:48.030Z,14.30
2022-11-05T14:27:23.738Z,13.90
2022-11-05T14:31:54.593Z,13.20
2022-11-05T14:35:51.056Z,12.40
2022-11-05T14:39:54.905Z,12.00
2022-11-05T14:44:03.728Z,11.70
2022-11-05T14:48:07.327Z,11.40
2022-11-05T14:52:13.003Z,11.30
2022-11-05T14:56:20.245Z,11.10
2022-11-05T15:00:47.384Z,11.00
2022-11-05T15:04:49.385Z,11.00
2022-11-05T15:09:08.294Z,11.00
2022-11-05T15:13:31.637Z,10.90
2022-11-05T15:17:35.314Z,10.70
2022-11-05T15:21:41.408Z,10.50
2022-11-05T15:25:53.646Z,10.40
2022-11-05T15:29:57.094Z,10.20
2022-11-05T15:34:19.907Z,10.10
2022-11-05T15:38:36.853Z,10.10
2022-11-05T15:42:36.959Z,10.00
2022-11-05T15:46:39.674Z,9.90
2022-11-05T15:50:39.841Z,9.90
2022-11-05T15:54:39.911Z,9.80
2022-11-05T15:58:49.036Z,9.80
2022-11-05T16:02:59.766Z,9.80
2022-11-05T16:07:03.913Z,9.80
2022-11-05T16:11:04.677Z,9.80
2022-11-05T16:15:21.996Z,9.80
2022-11-05T16:19:43.705Z,9.80
2022-11-05T16:23:47.674Z,9.90
2022-11-05T16:27:49.272Z,9.90
2022-11-05T16:31:54.043Z,9.90
2022-11-05T16:35:56.797Z,9.80
2022-11-05T16:39:58.121Z,9.80
2022-11-05T16:44:00.601Z,9.70
2022-11-05T16:48:01.253Z,9.70
2022-11-05T16:52:07.941Z,9.80
2022-11-05T16:56:12.165Z,9.70
2022-11-05T17:00:18.298Z,9.60
2022-11-05T17:04:18.411Z,9.50
2022-11-05T17:08:21.133Z,9.50
2022-11-05T17:12:21.182Z,9.60
2022-11-05T17:16:21.323Z,9.50
2022-11-05T17:20:40.265Z,9.50
2022-11-05T17:24:43.592Z,9.40
2022-11-05T17:28:44.216Z,9.20
2022-11-05T17:32:44.384Z,9.10
2022-11-05T17:36:44.563Z,9.00
2022-11-05T17:40:47.382Z,8.90
2022-11-05T17:44:47.454Z,8.80
2022-11-05T17:48:48.327Z,8.80
2022-11-05T17:52:48.424Z,8.80
2022-11-05T17:56:51.300Z,8.70
2022-11-05T18:00:51.786Z,8.70
2022-11-05T18:04:51.994Z,8.70
2022-11-05T18:08:52.075Z,8.70
2022-11-05T18:12:55.122Z,8.60
2022-11-05T18:17:00.148Z,8.60
2022-11-05T18:21:00.644Z,8.50
2022-11-05T18:25:00.959Z,8.50
2022-11-05T18:29:04.261Z,8.50
2022-11-05T18:33:04.353Z,8.40
2022-11-05T18:37:04.483Z,8.40
2022-11-05T18:41:09.384Z,8.40
2022-11-05T18:45:14.296Z,8.40
2022-11-05T18:49:14.501Z,8.40
2022-11-05T18:53:14.572Z,8.40
2022-11-05T18:57:14.638Z,8.40
2022-11-05T19:01:24.465Z,8.30
2022-11-05T19:05:29.459Z,8.30
2022-11-05T19:09:30.363Z,8.30
2022-11-05T19:13:30.378Z,8.30
2022-11-05T19:17:35.255Z,8.30
2022-11-05T19:21:36.106Z,8.30
2022-11-05T19:25:36.246Z,8.30
2022-11-05T19:29:36.330Z,8.30
2022-11-05T19:33:39.742Z,8.30
2022-11-05T19:37:39.970Z,8.30
2022-11-05T19:41:40.719Z,8.30
2022-11-05T19:45:45.554Z,8.20
2022-11-05T19:49:48.713Z,8.20
2022-11-05T19:53:49.238Z,8.20
2022-11-05T19:57:49.384Z,8.10
2022-11-05T20:01:49.596Z,8.10
2022-11-05T20:05:53.072Z,8.10
2022-11-05T20:09:53.153Z,8.10
2022-11-05T20:13:53.477Z,8.10
2022-11-05T20:17:58.876Z,8.10
2022-11-05T20:22:02.391Z,8.10
2022-11-05T20:26:02.878Z,8.10
2022-11-05T20:30:02.968Z,8.10
2022-11-05T20:34:03.239Z,8.10
2022-11-05T20:38:05.894Z,8.10
2022-11-05T20:42:06.296Z,8.10
2022-11-05T20:46:07.298Z,8.00
2022-11-05T20:50:10.016Z,8.00
2022-11-05T20:54:13.116Z,7.90
2022-11-05T20:58:14.592Z,7.90
2022-11-05T21:02:15.716Z,7.80
2022-11-05T21:06:16.971Z,7.70
2022-11-05T21:10:19.846Z,7.50
2022-11-05T21:14:20.365Z,7.40
2022-11-05T21:18:22.898Z,7.20
2022-11-05T21:22:23.038Z,7.10
2022-11-05T21:26:25.785Z,7.10
2022-11-05T21:30:25.917Z,7.10
2022-11-05T21:34:27.836Z,7.10
2022-11-05T21:38:28.752Z,7.10
2022-11-05T21:42:32.303Z,7.10
2022-11-05T21:46:32.760Z,7.10
2022-11-05T21:50:45.415Z,7.00
2022-11-05T21:54:58.100Z,7.00
2022-11-05T21:59:13.359Z,7.20
2022-11-05T22:03:13.506Z,7.30
2022-11-05T22:07:21.393Z,7.30
2022-11-05T22:11:21.439Z,7.30
2022-11-05T22:15:24.270Z,7.30
2022-11-05T22:19:25.078Z,7.30
2022-11-05T22:23:25.213Z,7.30
2022-11-05T22:27:25.372Z,7.30
2022-11-05T22:31:33.160Z,7.30
2022-11-05T22:35:35.964Z,7.30
2022-11-05T22:39:36.547Z,7.30
2022-11-05T22:43:36.937Z,7.30
2022-11-05T22:47:40.223Z,7.30
2022-11-05T22:51:42.225Z,7.30
2022-11-05T22:55:42.662Z,7.30
2022-11-05T22:59:42.983Z,7.30
2022-11-05T23:03:48.390Z,7.30
2022-11-05T23:08:00.930Z,7.30
2022-11-05T23:12:01.183Z,7.30
2022-11-05T23:16:14.138Z,7.30
2022-11-05T23:20:34.002Z,7.30
2022-11-05T23:24:34.085Z,7.20
2022-11-05T23:28:34.240Z,7.10
2022-11-05T23:32:35.582Z,7.10
2022-11-05T23:36:50.882Z,7.00
2022-11-05T23:41:03.291Z,6.90
2022-11-05T23:45:15.873Z,6.90
2022-11-05T23:49:15.960Z,6.90
2022-11-05T23:53:19.049Z,7.00
2022-11-05T23:57:19.121Z,7.10
